sensor_id;sensor_type;location;lat;lon;timestamp;temperature;humidity
7030;DHT22;3556;53.500;10.176;2023-04-12T00:00:45;3.00;99.90
7030;DHT22;3556;53.500;10.176;2023-04-12T00:03:11;3.00;99.90
7030;DHT22;3556;53.500;10.176;2023-04-12T00:05:36;2.90;99.90
7030;DHT22;3556;53.500;10.176;2023-04-12T00:08:02;2.90;99.90
7030;DHT22;3556;53.500;10.176;2023-04-12T00:10:29;2.90;99.90
7030;DHT22;3556;53.500;10.176;2023-04-12T00:12:55;2.90;99.90
7030;DHT22;3556;53.500;10.176;2023-04-12T00:15:20;2.90;99.90
7030;DHT22;3556;53.500;10.176;2023-04-12T00:17:46;2.90;99.90
7030;DHT22;3556;53.500;10.176;2023-04-12T00:20:13;2.90;99.90
7030;DHT22;3556;53.500;10.176;2023-04-12T00:22:40;2.80;99.90
7030;DHT22;3556;53.500;10.176;2023-04-12T00:25:07;2.80;99.90
7030;DHT22;3556;53.500;10.176;2023-04-12T00:27:32;2.80;99.90
7030;DHT22;3556;53.500;10.176;2023-04-12T00:29:58;2.70;99.90
7030;DHT22;3556;53.500;10.176;2023-04-12T00:32:24;2.70;99.90
7030;DHT22;3556;53.500;10.176;2023-04-12T00:34:50;2.70;99.90
7030;DHT22;3556;53.500;10.176;2023-04-12T00:37:15;2.70;99.90
7030;DHT22;3556;53.500;10.176;2023-04-12T00:39:41;2.70;99.90
7030;DHT22;3556;53.500;10.176;2023-04-12T00:42:06;2.70;99.90
7030;DHT22;3556;53.500;10.176;2023-04-12T00:44:32;2.70;99.90
7030;DHT22;3556;53.500;10.176;2023-04-12T00:46:59;2.60;99.90
7030;DHT22;3556;53.500;10.176;2023-04-12T00:49:27;2.60;99.90
7030;DHT22;3556;53.500;10.176;2023-04-12T00:51:59;2.60;99.90
7030;DHT22;3556;53.500;10.176;2023-04-12T00:54:28;2.50;99.90
7030;DHT22;3556;53.500;10.176;2023-04-12T00:56:54;2.50;99.90
7030;DHT22;3556;53.500;10.176;2023-04-12T00:59:22;2.50;99.90
7030;DHT22;3556;53.500;10.176;2023-04-12T01:01:47;2.50;99.90
7030;DHT22;3556;53.500;10.176;2023-04-12T01:04:14;2.50;99.90
7030;DHT22;3556;53.500;10.176;2023-04-12T01:06:57;2.50;99.90
7030;DHT22;3556;53.500;10.176;2023-04-12T01:09:48;2.50;99.90
7030;DHT22;3556;53.500;10.176;2023-04-12T01:15:21;2.50;99.90
7030;DHT22;3556;53.500;10.176;2023-04-12T01:18:03;2.50;99.90
7030;DHT22;3556;53.500;10.176;2023-04-12T01:20:37;2.50;99.90
7030;DHT22;3556;53.500;10.176;2023-04-12T01:23:29;2.50;99.90
7030;DHT22;3556;53.500;10.176;2023-04-12T01:28:53;2.50;99.90
7030;DHT22;3556;53.500;10.176;2023-04-12T01:31:20;2.50;99.90
7030;DHT22;3556;53.500;10.176;2023-04-12T01:33:46;2.50;99.90
7030;DHT22;3556;53.500;10.176;2023-04-12T01:36:18;2.60;99.90
7030;DHT22;3556;53.500;10.176;2023-04-12T01:38:45;2.60;99.90
7030;DHT22;3556;53.500;10.176;2023-04-12T01:41:12;2.60;99.90
7030;DHT22;3556;53.500;10.176;2023-04-12T01:43:43;2.60;99.90
7030;DHT22;3556;53.500;10.176;2023-04-12T01:46:09;2.60;99.90
7030;DHT22;3556;53.500;10.176;2023-04-12T01:48:36;2.60;99.90
7030;DHT22;3556;53.500;10.176;2023-04-12T01:51:09;2.60;99.90
7030;DHT22;3556;53.500;10.176;2023-04-12T01:53:48;2.70;99.90
7030;DHT22;3556;53.500;10.176;2023-04-12T01:56:16;2.70;99.90
7030;DHT22;3556;53.500;10.176;2023-04-12T01:58:43;2.70;99.90
7030;DHT22;3556;53.500;10.176;2023-04-12T02:01:12;2.70;99.90
7030;DHT22;3556;53.500;10.176;2023-04-12T02:03:43;2.70;99.90
7030;DHT22;3556;53.500;10.176;2023-04-12T02:06:10;2.70;99.90
7030;DHT22;3556;53.500;10.176;2023-04-12T02:08:36;2.70;99.90
7030;DHT22;3556;53.500;10.176;2023-04-12T02:11:09;2.70;99.90
7030;DHT22;3556;53.500;10.176;2023-04-12T02:13:34;2.70;99.90
7030;DHT22;3556;53.500;10.176;2023-04-12T02:16:00;2.70;99.90
7030;DHT22;3556;53.500;10.176;2023-04-12T02:18:28;2.70;99.90
7030;DHT22;3556;53.500;10.176;2023-04-12T02:20:55;2.80;99.90
7030;DHT22;3556;53.500;10.176;2023-04-12T02:23:21;2.80;99.90
7030;DHT22;3556;53.500;10.176;2023-04-12T02:25:46;2.80;99.90
7030;DHT22;3556;53.500;10.176;2023-04-12T02:28:12;2.80;99.90
7030;DHT22;3556;53.500;10.176;2023-04-12T02:30:38;2.80;99.90
7030;DHT22;3556;53.500;10.176;2023-04-12T02:33:06;2.90;99.90
7030;DHT22;3556;53.500;10.176;2023-04-12T02:35:34;2.90;99.90
7030;DHT22;3556;53.500;10.176;2023-04-12T02:38:00;2.90;99.90
7030;DHT22;3556;53.500;10.176;2023-04-12T02:40:28;3.00;99.90
7030;DHT22;3556;53.500;10.176;2023-04-12T02:42:54;2.90;99.90
7030;DHT22;3556;53.500;10.176;2023-04-12T02:45:20;3.00;99.90
7030;DHT22;3556;53.500;10.176;2023-04-12T02:47:45;3.00;99.90
7030;DHT22;3556;53.500;10.176;2023-04-12T02:50:11;3.00;99.90
7030;DHT22;3556;53.500;10.176;2023-04-12T02:52:36;3.00;99.90
7030;DHT22;3556;53.500;10.176;2023-04-12T02:55:02;3.00;99.90
7030;DHT22;3556;53.500;10.176;2023-04-12T02:57:28;3.00;99.90
7030;DHT22;3556;53.500;10.176;2023-04-12T02:59:53;3.00;99.90
7030;DHT22;3556;53.500;10.176;2023-04-12T03:02:22;3.00;99.90
7030;DHT22;3556;53.500;10.176;2023-04-12T03:04:47;3.10;99.90
7030;DHT22;3556;53.500;10.176;2023-04-12T03:07:19;3.20;99.90
7030;DHT22;3556;53.500;10.176;2023-04-12T03:09:46;3.30;99.90
7030;DHT22;3556;53.500;10.176;2023-04-12T03:12:13;3.40;99.90
7030;DHT22;3556;53.500;10.176;2023-04-12T03:14:38;3.40;99.90
7030;DHT22;3556;53.500;10.176;2023-04-12T03:17:04;3.50;99.90
7030;DHT22;3556;53.500;10.176;2023-04-12T03:19:30;3.60;99.90
7030;DHT22;3556;53.500;10.176;2023-04-12T03:21:57;3.70;99.90
7030;DHT22;3556;53.500;10.176;2023-04-12T03:24:24;3.80;99.90
7030;DHT22;3556;53.500;10.176;2023-04-12T03:26:50;3.90;99.90
7030;DHT22;3556;53.500;10.176;2023-04-12T03:29:16;3.90;99.90
7030;DHT22;3556;53.500;10.176;2023-04-12T03:31:42;3.90;99.90
7030;DHT22;3556;53.500;10.176;2023-04-12T03:34:08;4.00;99.90
7030;DHT22;3556;53.500;10.176;2023-04-12T03:36:34;4.00;99.90
7030;DHT22;3556;53.500;10.176;2023-04-12T03:38:59;4.10;99.90
7030;DHT22;3556;53.500;10.176;2023-04-12T03:41:27;4.20;99.90
7030;DHT22;3556;53.500;10.176;2023-04-12T03:43:52;4.20;99.90
7030;DHT22;3556;53.500;10.176;2023-04-12T03:46:18;4.20;99.90
7030;DHT22;3556;53.500;10.176;2023-04-12T03:48:44;4.20;99.90
7030;DHT22;3556;53.500;10.176;2023-04-12T03:51:10;4.20;99.90
7030;DHT22;3556;53.500;10.176;2023-04-12T03:53:38;4.30;99.90
7030;DHT22;3556;53.500;10.176;2023-04-12T03:56:03;4.30;99.90
7030;DHT22;3556;53.500;10.176;2023-04-12T03:58:29;4.30;99.90
7030;DHT22;3556;53.500;10.176;2023-04-12T04:00:55;4.40;99.90
7030;DHT22;3556;53.500;10.176;2023-04-12T04:03:21;4.40;99.90
7030;DHT22;3556;53.500;10.176;2023-04-12T04:05:51;4.40;99.90
7030;DHT22;3556;53.500;10.176;2023-04-12T04:08:17;4.50;99.90
7030;DHT22;3556;53.500;10.176;2023-04-12T04:10:43;4.50;99.90
7030;DHT22;3556;53.500;10.176;2023-04-12T04:13:08;4.60;99.90
7030;DHT22;3556;53.500;10.176;2023-04-12T04:15:34;4.50;99.90
7030;DHT22;3556;53.500;10.176;2023-04-12T04:17:59;4.60;99.90
7030;DHT22;3556;53.500;10.176;2023-04-12T04:20:25;4.60;99.90
7030;DHT22;3556;53.500;10.176;2023-04-12T04:22:51;4.60;99.90
7030;DHT22;3556;53.500;10.176;2023-04-12T04:25:17;4.60;99.90
7030;DHT22;3556;53.500;10.176;2023-04-12T04:27:44;4.60;99.90
7030;DHT22;3556;53.500;10.176;2023-04-12T04:30:11;4.60;99.90
7030;DHT22;3556;53.500;10.176;2023-04-12T04:32:37;4.60;99.90
7030;DHT22;3556;53.500;10.176;2023-04-12T04:35:04;4.60;99.90
7030;DHT22;3556;53.500;10.176;2023-04-12T04:37:30;4.60;99.90
7030;DHT22;3556;53.500;10.176;2023-04-12T04:39:56;4.60;99.90
7030;DHT22;3556;53.500;10.176;2023-04-12T04:42:22;4.60;99.90
7030;DHT22;3556;53.500;10.176;2023-04-12T04:44:48;4.60;99.90
7030;DHT22;3556;53.500;10.176;2023-04-12T04:47:24;4.60;99.90
7030;DHT22;3556;53.500;10.176;2023-04-12T04:49:50;4.70;99.90
7030;DHT22;3556;53.500;10.176;2023-04-12T04:52:15;4.70;99.90
7030;DHT22;3556;53.500;10.176;2023-04-12T04:54:42;4.70;99.90
7030;DHT22;3556;53.500;10.176;2023-04-12T04:57:08;4.70;99.90
7030;DHT22;3556;53.500;10.176;2023-04-12T04:59:36;4.70;99.90
7030;DHT22;3556;53.500;10.176;2023-04-12T05:02:02;4.70;99.90
7030;DHT22;3556;53.500;10.176;2023-04-12T05:04:27;4.70;99.90
7030;DHT22;3556;53.500;10.176;2023-04-12T05:06:53;4.70;99.90
7030;DHT22;3556;53.500;10.176;2023-04-12T05:09:19;4.70;99.90
7030;DHT22;3556;53.500;10.176;2023-04-12T05:11:45;4.70;99.90
7030;DHT22;3556;53.500;10.176;2023-04-12T05:14:11;4.70;99.90
7030;DHT22;3556;53.500;10.176;2023-04-12T05:16:36;4.70;99.90
7030;DHT22;3556;53.500;10.176;2023-04-12T05:19:02;4.70;99.90
7030;DHT22;3556;53.500;10.176;2023-04-12T05:21:28;4.70;99.90
7030;DHT22;3556;53.500;10.176;2023-04-12T05:23:53;4.70;99.90
7030;DHT22;3556;53.500;10.176;2023-04-12T05:26:19;4.70;99.90
7030;DHT22;3556;53.500;10.176;2023-04-12T05:28:46;4.60;99.90
7030;DHT22;3556;53.500;10.176;2023-04-12T05:31:11;4.60;99.90
7030;DHT22;3556;53.500;10.176;2023-04-12T05:33:37;4.60;99.90
7030;DHT22;3556;53.500;10.176;2023-04-12T05:36:03;4.70;99.90
7030;DHT22;3556;53.500;10.176;2023-04-12T05:38:29;4.70;99.90
7030;DHT22;3556;53.500;10.176;2023-04-12T05:40:55;4.80;99.90
7030;DHT22;3556;53.500;10.176;2023-04-12T05:43:20;4.90;99.90
7030;DHT22;3556;53.500;10.176;2023-04-12T05:45:46;5.00;99.90
7030;DHT22;3556;53.500;10.176;2023-04-12T05:48:12;5.10;99.90
7030;DHT22;3556;53.500;10.176;2023-04-12T05:50:38;5.20;99.90
7030;DHT22;3556;53.500;10.176;2023-04-12T05:53:03;5.30;99.90
7030;DHT22;3556;53.500;10.176;2023-04-12T05:55:29;5.40;99.90
7030;DHT22;3556;53.500;10.176;2023-04-12T05:57:55;5.50;99.90
7030;DHT22;3556;53.500;10.176;2023-04-12T06:00:22;5.60;99.90
7030;DHT22;3556;53.500;10.176;2023-04-12T06:02:48;5.60;99.90
7030;DHT22;3556;53.500;10.176;2023-04-12T06:05:15;5.70;99.90
7030;DHT22;3556;53.500;10.176;2023-04-12T06:07:44;5.80;99.90
7030;DHT22;3556;53.500;10.176;2023-04-12T06:10:14;5.90;99.90
7030;DHT22;3556;53.500;10.176;2023-04-12T06:12:43;6.00;99.90
7030;DHT22;3556;53.500;10.176;2023-04-12T06:15:09;6.20;99.90
7030;DHT22;3556;53.500;10.176;2023-04-12T06:17:35;6.30;99.90
7030;DHT22;3556;53.500;10.176;2023-04-12T06:20:02;6.40;99.90
7030;DHT22;3556;53.500;10.176;2023-04-12T06:22:31;6.50;99.90
7030;DHT22;3556;53.500;10.176;2023-04-12T06:24:57;6.60;99.90
7030;DHT22;3556;53.500;10.176;2023-04-12T06:27:23;6.70;99.90
7030;DHT22;3556;53.500;10.176;2023-04-12T06:29:50;6.80;99.90
7030;DHT22;3556;53.500;10.176;2023-04-12T06:32:16;6.90;99.90
7030;DHT22;3556;53.500;10.176;2023-04-12T06:34:42;7.10;99.90
7030;DHT22;3556;53.500;10.176;2023-04-12T06:37:07;7.20;99.90
7030;DHT22;3556;53.500;10.176;2023-04-12T06:39:33;7.30;99.90
7030;DHT22;3556;53.500;10.176;2023-04-12T06:41:59;7.40;99.90
7030;DHT22;3556;53.500;10.176;2023-04-12T06:44:25;7.50;99.90
7030;DHT22;3556;53.500;10.176;2023-04-12T06:46:52;7.70;99.90
7030;DHT22;3556;53.500;10.176;2023-04-12T06:49:17;7.80;99.90
7030;DHT22;3556;53.500;10.176;2023-04-12T06:51:43;8.00;99.90
7030;DHT22;3556;53.500;10.176;2023-04-12T06:54:09;8.20;99.90
7030;DHT22;3556;53.500;10.176;2023-04-12T06:56:37;8.30;99.90
7030;DHT22;3556;53.500;10.176;2023-04-12T06:59:04;8.40;99.90
7030;DHT22;3556;53.500;10.176;2023-04-12T07:01:30;8.60;99.90
7030;DHT22;3556;53.500;10.176;2023-04-12T07:03:56;8.80;99.90
7030;DHT22;3556;53.500;10.176;2023-04-12T07:06:22;9.00;99.90
7030;DHT22;3556;53.500;10.176;2023-04-12T07:08:47;9.10;99.90
7030;DHT22;3556;53.500;10.176;2023-04-12T07:11:13;9.20;99.90
7030;DHT22;3556;53.500;10.176;2023-04-12T07:13:39;9.40;99.90
7030;DHT22;3556;53.500;10.176;2023-04-12T07:16:05;9.70;99.90
7030;DHT22;3556;53.500;10.176;2023-04-12T07:18:31;10.00;99.90
7030;DHT22;3556;53.500;10.176;2023-04-12T07:20:57;10.20;99.90
7030;DHT22;3556;53.500;10.176;2023-04-12T07:23:23;10.30;99.90
7030;DHT22;3556;53.500;10.176;2023-04-12T07:25:50;10.30;99.90
7030;DHT22;3556;53.500;10.176;2023-04-12T07:28:15;10.30;99.90
7030;DHT22;3556;53.500;10.176;2023-04-12T07:30:41;10.40;99.90
7030;DHT22;3556;53.500;10.176;2023-04-12T07:33:07;10.40;99.90
7030;DHT22;3556;53.500;10.176;2023-04-12T07:35:33;10.60;99.90
7030;DHT22;3556;53.500;10.176;2023-04-12T07:37:59;10.70;99.90
7030;DHT22;3556;53.500;10.176;2023-04-12T07:40:26;10.80;99.90
7030;DHT22;3556;53.500;10.176;2023-04-12T07:42:51;10.70;99.90
7030;DHT22;3556;53.500;10.176;2023-04-12T07:45:18;10.70;99.90
7030;DHT22;3556;53.500;10.176;2023-04-12T07:47:44;10.60;99.90
7030;DHT22;3556;53.500;10.176;2023-04-12T07:50:10;10.60;99.90
7030;DHT22;3556;53.500;10.176;2023-04-12T07:52:35;10.50;99.90
7030;DHT22;3556;53.500;10.176;2023-04-12T07:55:01;10.60;99.90
7030;DHT22;3556;53.500;10.176;2023-04-12T07:57:26;10.60;99.90
7030;DHT22;3556;53.500;10.176;2023-04-12T07:59:52;10.50;99.90
7030;DHT22;3556;53.500;10.176;2023-04-12T08:02:18;10.50;99.90
7030;DHT22;3556;53.500;10.176;2023-04-12T08:04:58;10.50;99.90
7030;DHT22;3556;53.500;10.176;2023-04-12T08:07:23;10.40;99.90
7030;DHT22;3556;53.500;10.176;2023-04-12T08:09:51;10.40;99.90
7030;DHT22;3556;53.500;10.176;2023-04-12T08:12:17;10.40;99.90
7030;DHT22;3556;53.500;10.176;2023-04-12T08:14:42;10.40;99.90
7030;DHT22;3556;53.500;10.176;2023-04-12T08:17:09;10.40;99.90
7030;DHT22;3556;53.500;10.176;2023-04-12T08:19:35;10.40;99.90
7030;DHT22;3556;53.500;10.176;2023-04-12T08:22:01;10.40;99.90
7030;DHT22;3556;53.500;10.176;2023-04-12T08:24:27;10.30;99.90
7030;DHT22;3556;53.500;10.176;2023-04-12T08:26:53;10.20;99.90
7030;DHT22;3556;53.500;10.176;2023-04-12T08:29:18;10.10;99.90
7030;DHT22;3556;53.500;10.176;2023-04-12T08:31:44;10.10;99.90
7030;DHT22;3556;53.500;10.176;2023-04-12T08:34:10;10.10;99.90
7030;DHT22;3556;53.500;10.176;2023-04-12T08:36:36;10.00;99.90
7030;DHT22;3556;53.500;10.176;2023-04-12T08:39:02;10.00;99.90
7030;DHT22;3556;53.500;10.176;2023-04-12T08:41:28;10.00;99.90
7030;DHT22;3556;53.500;10.176;2023-04-12T08:43:54;10.00;99.90
7030;DHT22;3556;53.500;10.176;2023-04-12T08:46:20;9.90;99.90
7030;DHT22;3556;53.500;10.176;2023-04-12T08:48:48;10.00;99.90
7030;DHT22;3556;53.500;10.176;2023-04-12T08:51:19;10.00;99.90
7030;DHT22;3556;53.500;10.176;2023-04-12T08:53:45;10.00;99.90
7030;DHT22;3556;53.500;10.176;2023-04-12T08:56:12;10.00;99.90
7030;DHT22;3556;53.500;10.176;2023-04-12T08:58:39;10.00;99.90
7030;DHT22;3556;53.500;10.176;2023-04-12T09:01:15;10.00;99.90
7030;DHT22;3556;53.500;10.176;2023-04-12T09:03:42;10.00;99.90
7030;DHT22;3556;53.500;10.176;2023-04-12T09:06:08;10.10;99.90
7030;DHT22;3556;53.500;10.176;2023-04-12T09:08:35;10.10;99.90
7030;DHT22;3556;53.500;10.176;2023-04-12T09:11:01;10.10;99.90
7030;DHT22;3556;53.500;10.176;2023-04-12T09:13:34;10.10;99.90
7030;DHT22;3556;53.500;10.176;2023-04-12T09:16:01;10.20;99.90
7030;DHT22;3556;53.500;10.176;2023-04-12T09:18:27;10.30;99.90
7030;DHT22;3556;53.500;10.176;2023-04-12T09:21:06;10.30;99.90
7030;DHT22;3556;53.500;10.176;2023-04-12T09:23:33;10.50;99.90
7030;DHT22;3556;53.500;10.176;2023-04-12T09:26:00;10.50;99.90
7030;DHT22;3556;53.500;10.176;2023-04-12T09:28:27;10.60;99.90
7030;DHT22;3556;53.500;10.176;2023-04-12T09:30:55;10.70;99.90
7030;DHT22;3556;53.500;10.176;2023-04-12T09:33:23;10.90;99.90
7030;DHT22;3556;53.500;10.176;2023-04-12T09:36:00;11.00;99.90
7030;DHT22;3556;53.500;10.176;2023-04-12T09:38:26;11.20;99.90
7030;DHT22;3556;53.500;10.176;2023-04-12T09:40:52;11.20;99.90
7030;DHT22;3556;53.500;10.176;2023-04-12T09:43:19;11.30;99.90
7030;DHT22;3556;53.500;10.176;2023-04-12T09:46:12;11.30;99.90
7030;DHT22;3556;53.500;10.176;2023-04-12T09:48:39;11.40;99.90
7030;DHT22;3556;53.500;10.176;2023-04-12T09:51:08;11.40;99.90
7030;DHT22;3556;53.500;10.176;2023-04-12T09:53:34;11.40;99.90
7030;DHT22;3556;53.500;10.176;2023-04-12T09:56:02;11.50;99.90
7030;DHT22;3556;53.500;10.176;2023-04-12T09:58:32;11.50;99.90
7030;DHT22;3556;53.500;10.176;2023-04-12T10:01:01;11.50;99.90
7030;DHT22;3556;53.500;10.176;2023-04-12T10:03:28;11.50;99.90
7030;DHT22;3556;53.500;10.176;2023-04-12T10:05:54;11.60;99.90
7030;DHT22;3556;53.500;10.176;2023-04-12T10:08:21;11.70;99.90
7030;DHT22;3556;53.500;10.176;2023-04-12T10:10:47;11.80;99.90
7030;DHT22;3556;53.500;10.176;2023-04-12T10:13:14;11.80;99.90
7030;DHT22;3556;53.500;10.176;2023-04-12T10:15:44;11.80;99.90
7030;DHT22;3556;53.500;10.176;2023-04-12T10:18:10;11.80;99.90
7030;DHT22;3556;53.500;10.176;2023-04-12T10:20:39;11.70;99.90
7030;DHT22;3556;53.500;10.176;2023-04-12T10:23:07;11.90;99.90
7030;DHT22;3556;53.500;10.176;2023-04-12T10:25:33;11.90;99.90
7030;DHT22;3556;53.500;10.176;2023-04-12T10:28:19;11.90;99.90
7030;DHT22;3556;53.500;10.176;2023-04-12T10:30:46;11.90;99.90
7030;DHT22;3556;53.500;10.176;2023-04-12T10:33:15;11.90;99.90
7030;DHT22;3556;53.500;10.176;2023-04-12T10:38:13;12.00;99.90
7030;DHT22;3556;53.500;10.176;2023-04-12T10:41:11;12.00;99.90
7030;DHT22;3556;53.500;10.176;2023-04-12T10:43:38;11.90;99.90
7030;DHT22;3556;53.500;10.176;2023-04-12T10:46:04;11.90;99.90
7030;DHT22;3556;53.500;10.176;2023-04-12T10:49:06;11.90;99.90
7030;DHT22;3556;53.500;10.176;2023-04-12T10:51:32;11.90;99.90
7030;DHT22;3556;53.500;10.176;2023-04-12T10:56:43;12.00;99.90
7030;DHT22;3556;53.500;10.176;2023-04-12T10:59:10;12.00;99.90
7030;DHT22;3556;53.500;10.176;2023-04-12T11:01:36;11.90;99.90
7030;DHT22;3556;53.500;10.176;2023-04-12T11:04:21;11.90;99.90
7030;DHT22;3556;53.500;10.176;2023-04-12T11:12:13;11.60;99.90
7030;DHT22;3556;53.500;10.176;2023-04-12T11:14:47;11.50;99.90
7030;DHT22;3556;53.500;10.176;2023-04-12T11:19:58;11.30;99.90
7030;DHT22;3556;53.500;10.176;2023-04-12T11:22:29;11.10;99.90
7030;DHT22;3556;53.500;10.176;2023-04-12T11:24:58;11.00;99.90
7030;DHT22;3556;53.500;10.176;2023-04-12T11:27:25;10.80;99.90
7030;DHT22;3556;53.500;10.176;2023-04-12T11:29:53;10.70;99.90
7030;DHT22;3556;53.500;10.176;2023-04-12T11:32:21;10.60;99.90
7030;DHT22;3556;53.500;10.176;2023-04-12T11:34:48;10.40;99.90
7030;DHT22;3556;53.500;10.176;2023-04-12T11:37:15;10.30;99.90
7030;DHT22;3556;53.500;10.176;2023-04-12T11:39:43;10.20;99.90
7030;DHT22;3556;53.500;10.176;2023-04-12T11:42:17;10.20;99.90
7030;DHT22;3556;53.500;10.176;2023-04-12T11:44:43;10.20;99.90
7030;DHT22;3556;53.500;10.176;2023-04-12T11:47:17;10.10;99.90
7030;DHT22;3556;53.500;10.176;2023-04-12T11:49:45;10.10;99.90
7030;DHT22;3556;53.500;10.176;2023-04-12T11:52:12;10.10;99.90
7030;DHT22;3556;53.500;10.176;2023-04-12T11:55:01;10.00;99.90
7030;DHT22;3556;53.500;10.176;2023-04-12T11:57:29;9.90;99.90
7030;DHT22;3556;53.500;10.176;2023-04-12T11:59:56;9.90;99.90
7030;DHT22;3556;53.500;10.176;2023-04-12T12:02:25;9.90;99.90
7030;DHT22;3556;53.500;10.176;2023-04-12T12:04:51;9.90;99.90
7030;DHT22;3556;53.500;10.176;2023-04-12T12:07:17;9.90;99.90
7030;DHT22;3556;53.500;10.176;2023-04-12T12:09:45;9.90;99.90
7030;DHT22;3556;53.500;10.176;2023-04-12T12:12:12;9.90;99.90
7030;DHT22;3556;53.500;10.176;2023-04-12T12:14:38;9.90;99.90
7030;DHT22;3556;53.500;10.176;2023-04-12T12:17:14;9.80;99.90
7030;DHT22;3556;53.500;10.176;2023-04-12T12:19:42;9.80;99.90
7030;DHT22;3556;53.500;10.176;2023-04-12T12:24:38;9.80;99.90
7030;DHT22;3556;53.500;10.176;2023-04-12T12:27:04;9.90;99.90
7030;DHT22;3556;53.500;10.176;2023-04-12T12:29:36;9.90;99.90
7030;DHT22;3556;53.500;10.176;2023-04-12T12:32:09;10.00;99.90
7030;DHT22;3556;53.500;10.176;2023-04-12T12:34:35;10.00;99.90
7030;DHT22;3556;53.500;10.176;2023-04-12T12:37:01;10.00;99.90
7030;DHT22;3556;53.500;10.176;2023-04-12T12:39:27;10.00;99.90
7030;DHT22;3556;53.500;10.176;2023-04-12T12:41:53;9.90;99.90
7030;DHT22;3556;53.500;10.176;2023-04-12T12:44:23;9.90;99.90
7030;DHT22;3556;53.500;10.176;2023-04-12T12:46:48;9.90;99.90
7030;DHT22;3556;53.500;10.176;2023-04-12T12:49:14;9.80;99.90
7030;DHT22;3556;53.500;10.176;2023-04-12T12:51:41;9.80;99.90
7030;DHT22;3556;53.500;10.176;2023-04-12T12:54:06;9.80;99.90
7030;DHT22;3556;53.500;10.176;2023-04-12T12:56:32;9.80;99.90
7030;DHT22;3556;53.500;10.176;2023-04-12T12:59:00;9.80;99.90
7030;DHT22;3556;53.500;10.176;2023-04-12T13:01:25;9.80;99.90
7030;DHT22;3556;53.500;10.176;2023-04-12T13:03:52;9.70;99.90
7030;DHT22;3556;53.500;10.176;2023-04-12T13:06:18;9.70;99.90
7030;DHT22;3556;53.500;10.176;2023-04-12T13:08:44;9.70;99.90
7030;DHT22;3556;53.500;10.176;2023-04-12T13:11:09;9.70;99.90
7030;DHT22;3556;53.500;10.176;2023-04-12T13:13:35;9.60;99.90
7030;DHT22;3556;53.500;10.176;2023-04-12T13:16:01;9.60;99.90
7030;DHT22;3556;53.500;10.176;2023-04-12T13:18:26;9.70;99.90
7030;DHT22;3556;53.500;10.176;2023-04-12T13:20:52;9.70;99.90
7030;DHT22;3556;53.500;10.176;2023-04-12T13:23:18;9.70;99.90
7030;DHT22;3556;53.500;10.176;2023-04-12T13:25:43;9.80;99.90
7030;DHT22;3556;53.500;10.176;2023-04-12T13:28:09;9.90;99.90
7030;DHT22;3556;53.500;10.176;2023-04-12T13:30:35;9.90;99.90
7030;DHT22;3556;53.500;10.176;2023-04-12T13:33:00;9.90;99.90
7030;DHT22;3556;53.500;10.176;2023-04-12T13:35:26;9.90;99.90
7030;DHT22;3556;53.500;10.176;2023-04-12T13:37:51;9.90;99.90
7030;DHT22;3556;53.500;10.176;2023-04-12T13:40:17;10.00;99.90
7030;DHT22;3556;53.500;10.176;2023-04-12T13:42:43;10.00;99.90
7030;DHT22;3556;53.500;10.176;2023-04-12T13:45:09;10.10;99.90
7030;DHT22;3556;53.500;10.176;2023-04-12T13:47:35;10.10;99.90
7030;DHT22;3556;53.500;10.176;2023-04-12T13:50:01;10.20;99.90
7030;DHT22;3556;53.500;10.176;2023-04-12T13:52:26;10.10;99.90
7030;DHT22;3556;53.500;10.176;2023-04-12T13:54:52;10.00;99.90
7030;DHT22;3556;53.500;10.176;2023-04-12T13:57:18;10.00;99.90
7030;DHT22;3556;53.500;10.176;2023-04-12T13:59:44;10.00;99.90
7030;DHT22;3556;53.500;10.176;2023-04-12T14:02:09;10.00;99.90
7030;DHT22;3556;53.500;10.176;2023-04-12T14:04:35;9.90;99.90
7030;DHT22;3556;53.500;10.176;2023-04-12T14:07:01;9.90;99.90
7030;DHT22;3556;53.500;10.176;2023-04-12T14:09:28;9.90;99.90
7030;DHT22;3556;53.500;10.176;2023-04-12T14:11:55;9.80;99.90
7030;DHT22;3556;53.500;10.176;2023-04-12T14:14:22;9.80;99.90
7030;DHT22;3556;53.500;10.176;2023-04-12T14:16:52;9.70;99.90
7030;DHT22;3556;53.500;10.176;2023-04-12T14:19:21;9.70;99.90
7030;DHT22;3556;53.500;10.176;2023-04-12T14:21:47;9.70;99.90
7030;DHT22;3556;53.500;10.176;2023-04-12T14:24:17;9.70;99.90
7030;DHT22;3556;53.500;10.176;2023-04-12T14:26:43;9.70;99.90
7030;DHT22;3556;53.500;10.176;2023-04-12T14:29:09;9.70;99.90
7030;DHT22;3556;53.500;10.176;2023-04-12T14:31:35;9.70;99.90
7030;DHT22;3556;53.500;10.176;2023-04-12T14:34:02;9.70;99.90
7030;DHT22;3556;53.500;10.176;2023-04-12T14:36:28;9.70;99.90
7030;DHT22;3556;53.500;10.176;2023-04-12T14:38:54;9.70;99.90
7030;DHT22;3556;53.500;10.176;2023-04-12T14:41:20;9.70;99.90
7030;DHT22;3556;53.500;10.176;2023-04-12T14:43:45;9.70;99.90
7030;DHT22;3556;53.500;10.176;2023-04-12T14:46:11;9.60;99.90
7030;DHT22;3556;53.500;10.176;2023-04-12T14:48:37;9.50;99.90
7030;DHT22;3556;53.500;10.176;2023-04-12T14:51:03;9.50;99.90
7030;DHT22;3556;53.500;10.176;2023-04-12T14:53:29;9.50;99.90
7030;DHT22;3556;53.500;10.176;2023-04-12T14:55:55;9.40;99.90
7030;DHT22;3556;53.500;10.176;2023-04-12T14:58:21;9.40;99.90
7030;DHT22;3556;53.500;10.176;2023-04-12T15:00:46;9.40;99.90
7030;DHT22;3556;53.500;10.176;2023-04-12T15:03:12;9.40;99.90
7030;DHT22;3556;53.500;10.176;2023-04-12T15:05:38;9.40;99.90
7030;DHT22;3556;53.500;10.176;2023-04-12T15:08:03;9.40;99.90
7030;DHT22;3556;53.500;10.176;2023-04-12T15:10:29;9.40;99.90
7030;DHT22;3556;53.500;10.176;2023-04-12T15:12:56;9.50;99.90
7030;DHT22;3556;53.500;10.176;2023-04-12T15:15:22;9.50;99.90
7030;DHT22;3556;53.500;10.176;2023-04-12T15:17:48;9.50;99.90
7030;DHT22;3556;53.500;10.176;2023-04-12T15:20:14;9.60;99.90
7030;DHT22;3556;53.500;10.176;2023-04-12T15:22:41;9.60;99.90
7030;DHT22;3556;53.500;10.176;2023-04-12T15:25:08;9.60;99.90
7030;DHT22;3556;53.500;10.176;2023-04-12T15:27:34;9.70;99.90
7030;DHT22;3556;53.500;10.176;2023-04-12T15:30:00;9.70;99.90
7030;DHT22;3556;53.500;10.176;2023-04-12T15:32:27;9.70;99.90
7030;DHT22;3556;53.500;10.176;2023-04-12T15:34:53;9.80;99.90
7030;DHT22;3556;53.500;10.176;2023-04-12T15:37:22;9.80;99.90
7030;DHT22;3556;53.500;10.176;2023-04-12T15:39:48;9.80;99.90
7030;DHT22;3556;53.500;10.176;2023-04-12T15:42:14;9.80;99.90
7030;DHT22;3556;53.500;10.176;2023-04-12T15:44:41;9.80;99.90
7030;DHT22;3556;53.500;10.176;2023-04-12T15:47:07;9.70;99.90
7030;DHT22;3556;53.500;10.176;2023-04-12T15:49:33;9.70;99.90
7030;DHT22;3556;53.500;10.176;2023-04-12T15:51:58;9.70;99.90
7030;DHT22;3556;53.500;10.176;2023-04-12T15:54:24;9.70;99.90
7030;DHT22;3556;53.500;10.176;2023-04-12T15:56:50;9.60;99.90
7030;DHT22;3556;53.500;10.176;2023-04-12T15:59:16;9.60;99.90
7030;DHT22;3556;53.500;10.176;2023-04-12T16:01:45;9.60;99.90
7030;DHT22;3556;53.500;10.176;2023-04-12T16:04:13;9.60;99.90
7030;DHT22;3556;53.500;10.176;2023-04-12T16:06:42;9.60;99.90
7030;DHT22;3556;53.500;10.176;2023-04-12T16:09:09;9.60;99.90
7030;DHT22;3556;53.500;10.176;2023-04-12T16:11:36;9.60;99.90
7030;DHT22;3556;53.500;10.176;2023-04-12T16:14:02;9.50;99.90
7030;DHT22;3556;53.500;10.176;2023-04-12T16:16:28;9.50;99.90
7030;DHT22;3556;53.500;10.176;2023-04-12T16:18:53;9.50;99.90